Time;durP1;ratioP1;P1;durP2;ratioP2;P2;SDS_P1;SDS_P2;PMS_P1;PMS_P2;Temp;Humidity;BMP_temperature;BMP_pressure;BME280_temperature;BME280_humidity;BME280_pressure;Samples;Min_cycle;Max_cycle;Signal;HPM_P1;HPM_P2
2024/01/17 00:04:20;;;;;;;;;;;-2.80;99.90;;;;;;6730143;88;20457;-77
2024/01/17 00:14:21;;;;;;;;;;;-2.80;99.90;;;;;;6735281;88;20047;-78
2024/01/17 00:24:21;;;;;;;;;;;-2.90;99.90;;;;;;6742772;88;20072;-79
2024/01/17 00:34:21;;;;;;;;;;;-2.80;99.90;;;;;;6730206;88;20554;-78
2024/01/17 00:44:26;;;;;;;;;;;-2.80;99.90;;;;;;6731530;88;20062;-76
2024/01/17 00:54:27;;;;;;;;;;;-2.80;99.90;;;;;;6720353;88;20075;-76
2024/01/17 01:04:28;;;;;;;;;;;-2.80;99.90;;;;;;6708184;88;20498;-77
2024/01/17 01:14:28;;;;;;;;;;;-2.80;99.90;;;;;;6708109;88;20088;-78
2024/01/17 01:24:29;;;;;;;;;;;-2.90;99.90;;;;;;6717179;88;20083;-77
2024/01/17 01:34:29;;;;;;;;;;;-2.90;99.90;;;;;;6721805;88;20070;-78
2024/01/17 01:44:29;;;;;;;;;;;-2.80;99.90;;;;;;6726227;88;20083;-77
2024/01/17 01:54:30;;;;;;;;;;;-2.80;99.90;;;;;;6740746;88;20112;-77
2024/01/17 02:04:32;;;;;;;;;;;-2.80;99.90;;;;;;6733008;88;20200;-78
2024/01/17 02:14:33;;;;;;;;;;;-2.80;99.90;;;;;;6739214;88;20066;-78
2024/01/17 02:24:33;;;;;;;;;;;-2.80;99.90;;;;;;6722485;88;20080;-78
2024/01/17 02:34:34;;;;;;;;;;;-2.90;99.90;;;;;;6722233;88;20074;-78
2024/01/17 02:44:34;;;;;;;;;;;-2.90;99.90;;;;;;6721372;88;20070;-78
2024/01/17 02:54:34;;;;;;;;;;;-3.00;99.90;;;;;;6738407;88;20191;-78
2024/01/17 03:04:35;;;;;;;;;;;-3.10;99.90;;;;;;6743622;88;20054;-77
2024/01/17 03:14:35;;;;;;;;;;;-3.10;99.90;;;;;;6739529;88;20074;-77
2024/01/17 03:24:36;;;;;;;;;;;-3.10;99.90;;;;;;6739795;88;20062;-78
2024/01/17 03:34:37;;;;;;;;;;;-3.10;99.90;;;;;;6738952;88;20612;-77
2024/01/17 03:44:37;;;;;;;;;;;-3.10;99.90;;;;;;6738476;88;20620;-77
2024/01/17 03:54:38;;;;;;;;;;;-3.10;99.90;;;;;;6732280;88;20078;-77
2024/01/17 04:04:41;;;;;;;;;;;-3.00;99.90;;;;;;6724755;88;20070;-77
2024/01/17 04:14:41;;;;;;;;;;;-2.90;99.90;;;;;;6728960;88;20216;-77
2024/01/17 04:24:42;;;;;;;;;;;-2.80;99.90;;;;;;6736653;88;20116;-77
2024/01/17 04:34:42;;;;;;;;;;;-2.80;99.90;;;;;;6734294;88;20050;-78
2024/01/17 04:44:45;;;;;;;;;;;-2.80;99.90;;;;;;6737905;88;20058;-77
2024/01/17 04:54:45;;;;;;;;;;;-2.70;99.90;;;;;;6749074;88;20188;-77
2024/01/17 05:04:46;;;;;;;;;;;-2.70;99.90;;;;;;6749415;88;20088;-78
2024/01/17 05:14:46;;;;;;;;;;;-2.60;99.90;;;;;;6763680;88;20044;-78
2024/01/17 05:24:47;;;;;;;;;;;-2.60;99.90;;;;;;6770271;87;20676;-78
2024/01/17 05:34:50;;;;;;;;;;;-2.60;99.90;;;;;;6756965;88;20249;-77
2024/01/17 05:44:51;;;;;;;;;;;-2.60;99.90;;;;;;6728235;77;20090;-78
2024/01/17 05:54:51;;;;;;;;;;;-2.60;99.90;;;;;;6722361;88;20215;-79
2024/01/17 06:04:52;;;;;;;;;;;-2.70;99.90;;;;;;6718879;88;20161;-77
2024/01/17 06:14:52;;;;;;;;;;;-2.70;99.90;;;;;;6720535;88;20146;-78
2024/01/17 06:24:53;;;;;;;;;;;-2.70;99.90;;;;;;6722079;88;20058;-78
2024/01/17 06:34:53;;;;;;;;;;;-2.70;99.90;;;;;;6716546;88;20047;-78
2024/01/17 06:44:54;;;;;;;;;;;-2.60;99.90;;;;;;6729478;88;20156;-77
2024/01/17 06:54:54;;;;;;;;;;;-2.40;99.90;;;;;;6732852;88;20168;-76
2024/01/17 07:04:54;;;;;;;;;;;-2.30;99.90;;;;;;6731789;88;20070;-76
2024/01/17 07:14:55;;;;;;;;;;;-2.20;99.90;;;;;;6732433;88;20088;-76
2024/01/17 07:24:55;;;;;;;;;;;-2.20;99.90;;;;;;6730820;88;20043;-77
2024/01/17 07:34:56;;;;;;;;;;;-2.10;99.90;;;;;;6731716;88;20079;-76
2024/01/17 07:44:56;;;;;;;;;;;-2.10;99.90;;;;;;6733434;88;20167;-77
2024/01/17 07:54:57;;;;;;;;;;;-2.10;99.90;;;;;;6734220;88;20058;-76
2024/01/17 08:04:57;;;;;;;;;;;-2.10;99.90;;;;;;6731067;88;20099;-75
2024/01/17 08:14:57;;;;;;;;;;;-1.90;99.90;;;;;;6733271;88;20046;-75
2024/01/17 08:24:58;;;;;;;;;;;-1.90;99.90;;;;;;6735121;88;20051;-76
2024/01/17 08:34:59;;;;;;;;;;;-1.80;99.90;;;;;;6729935;88;20055;-77
2024/01/17 08:45:01;;;;;;;;;;;-1.70;99.90;;;;;;6731547;88;20051;-76
2024/01/17 08:55:02;;;;;;;;;;;-1.70;99.90;;;;;;6735891;88;20094;-77
2024/01/17 09:05:03;;;;;;;;;;;-1.70;99.90;;;;;;6734213;88;20085;-77
2024/01/17 09:15:04;;;;;;;;;;;-1.60;99.90;;;;;;6734951;88;20219;-77
2024/01/17 09:25:04;;;;;;;;;;;-1.50;99.90;;;;;;6734866;88;20080;-78
2024/01/17 09:35:05;;;;;;;;;;;-1.40;99.90;;;;;;6741424;88;20057;-77
2024/01/17 09:45:07;;;;;;;;;;;-1.20;99.90;;;;;;6733220;88;20176;-78
2024/01/17 09:55:08;;;;;;;;;;;-1.10;99.90;;;;;;6729807;88;20589;-77
2024/01/17 10:05:11;;;;;;;;;;;-0.90;99.90;;;;;;6733398;88;20066;-76
2024/01/17 10:15:13;;;;;;;;;;;-0.80;99.90;;;;;;6725786;88;20204;-77
2024/01/17 10:25:13;;;;;;;;;;;-0.80;99.90;;;;;;6729198;88;20228;-78
2024/01/17 10:35:14;;;;;;;;;;;-0.60;99.90;;;;;;6732729;88;20107;-78
2024/01/17 10:45:20;;;;;;;;;;;-0.60;99.90;;;;;;6732751;88;20049;-77
2024/01/17 10:55:21;;;;;;;;;;;-0.70;99.90;;;;;;6732708;88;20092;-77
2024/01/17 11:05:23;;;;;;;;;;;-0.60;99.90;;;;;;6732903;88;20116;-76
2024/01/17 11:15:24;;;;;;;;;;;-0.50;99.90;;;;;;6733942;88;20601;-76
2024/01/17 11:25:47;;;;;;;;;;;-0.50;99.90;;;;;;6734017;88;20067;-77
2024/01/17 11:35:51;;;;;;;;;;;-0.50;99.90;;;;;;6717879;88;20060;-78
2024/01/17 11:45:53;;;;;;;;;;;-0.30;99.90;;;;;;6731456;77;20068;-75
2024/01/17 11:55:57;;;;;;;;;;;-0.20;99.90;;;;;;6718270;88;20050;-77
2024/01/17 12:05:57;;;;;;;;;;;-0.30;99.90;;;;;;6717402;88;20074;-75
2024/01/17 12:15:59;;;;;;;;;;;-0.30;99.90;;;;;;6714974;88;20104;-75
2024/01/17 12:26:00;;;;;;;;;;;-0.20;99.90;;;;;;6713391;88;20560;-75
2024/01/17 12:36:01;;;;;;;;;;;-0.40;99.90;;;;;;6713068;88;20146;-75
2024/01/17 12:46:02;;;;;;;;;;;-0.30;99.90;;;;;;6712842;88;20079;-76
2024/01/17 12:56:05;;;;;;;;;;;-0.40;99.90;;;;;;6715255;88;20547;-76
2024/01/17 13:06:08;;;;;;;;;;;-0.30;99.90;;;;;;6713550;88;21573;-76
2024/01/17 13:16:09;;;;;;;;;;;-0.30;99.90;;;;;;6717430;88;20050;-76
2024/01/17 13:26:11;;;;;;;;;;;-0.20;99.90;;;;;;6710617;88;20900;-76
2024/01/17 13:36:12;;;;;;;;;;;-0.20;99.90;;;;;;6713084;88;20074;-75
2024/01/17 13:46:12;;;;;;;;;;;-0.10;99.90;;;;;;6716561;88;20059;-75
2024/01/17 13:56:13;;;;;;;;;;;0.00;99.90;;;;;;6712446;88;20219;-75
2024/01/17 14:06:14;;;;;;;;;;;-0.20;99.90;;;;;;6726485;88;20070;-74
2024/01/17 14:16:14;;;;;;;;;;;-0.10;99.90;;;;;;6720699;88;20059;-76
2024/01/17 14:26:18;;;;;;;;;;;-0.10;99.90;;;;;;6714767;88;20051;-76
2024/01/17 14:36:18;;;;;;;;;;;-0.20;99.90;;;;;;6715941;88;20238;-76
2024/01/17 14:46:19;;;;;;;;;;;-0.20;99.90;;;;;;6720324;88;20070;-75
2024/01/17 14:56:20;;;;;;;;;;;-0.40;99.90;;;;;;6716382;88;20240;-75
2024/01/17 15:06:21;;;;;;;;;;;-0.40;99.90;;;;;;6729348;88;20059;-79
2024/01/17 15:16:22;;;;;;;;;;;-0.40;99.90;;;;;;6715842;88;20056;-76
2024/01/17 15:26:23;;;;;;;;;;;-0.50;99.90;;;;;;6707403;88;20108;-75
2024/01/17 15:36:24;;;;;;;;;;;-0.50;99.90;;;;;;6713839;88;20543;-76
2024/01/17 15:46:24;;;;;;;;;;;-0.60;99.90;;;;;;6712639;88;20087;-75
2024/01/17 15:56:25;;;;;;;;;;;-0.50;99.90;;;;;;6715900;88;20084;-76
2024/01/17 16:06:26;;;;;;;;;;;-0.40;99.90;;;;;;6714241;88;20189;-75
2024/01/17 16:16:26;;;;;;;;;;;-0.40;99.90;;;;;;6721105;88;20066;-76
2024/01/17 16:26:27;;;;;;;;;;;-0.30;99.90;;;;;;6720791;88;20091;-76
2024/01/17 16:36:27;;;;;;;;;;;-0.30;99.90;;;;;;6714397;88;20490;-76
2024/01/17 16:46:27;;;;;;;;;;;-0.30;99.90;;;;;;6717681;88;20107;-76
2024/01/17 16:56:28;;;;;;;;;;;-0.10;99.90;;;;;;6713960;88;20495;-77
2024/01/17 17:06:30;;;;;;;;;;;-0.20;99.90;;;;;;6718140;88;20100;-77
2024/01/17 17:16:30;;;;;;;;;;;-0.10;99.90;;;;;;6720033;88;20112;-77
2024/01/17 17:26:36;;;;;;;;;;;-0.10;99.90;;;;;;6717294;88;20134;-76
2024/01/17 17:36:37;;;;;;;;;;;0.00;99.90;;;;;;6715636;88;20061;-77
2024/01/17 17:46:38;;;;;;;;;;;0.00;99.90;;;;;;6725951;88;20125;-77
2024/01/17 17:56:42;;;;;;;;;;;0.00;99.90;;;;;;6717860;88;20706;-76
2024/01/17 18:06:43;;;;;;;;;;;0.00;99.90;;;;;;6718111;88;20071;-77
2024/01/17 18:16:43;;;;;;;;;;;0.00;99.90;;;;;;6720125;88;20201;-76
2024/01/17 18:26:44;;;;;;;;;;;0.00;99.90;;;;;;6720721;88;20073;-75
2024/01/17 18:46:48;;;;;;;;;;;0.00;99.90;;;;;;6702809;88;20095;-78
2024/01/17 18:56:48;;;;;;;;;;;0.10;99.90;;;;;;6701472;88;20044;-77
2024/01/17 19:06:49;;;;;;;;;;;0.20;99.90;;;;;;6701556;88;20090;-77
2024/01/17 19:16:50;;;;;;;;;;;0.10;99.90;;;;;;6702704;88;20522;-77
2024/01/17 19:26:51;;;;;;;;;;;0.20;99.90;;;;;;6700943;88;20059;-77
2024/01/17 19:36:51;;;;;;;;;;;0.10;99.90;;;;;;6705677;88;20126;-78
2024/01/17 19:46:51;;;;;;;;;;;-0.10;99.90;;;;;;6700619;88;20059;-78
2024/01/17 19:56:52;;;;;;;;;;;-0.10;99.90;;;;;;6700489;88;20058;-78
2024/01/17 20:06:52;;;;;;;;;;;-0.10;99.90;;;;;;6700436;88;21033;-77
2024/01/17 20:16:53;;;;;;;;;;;-0.10;99.90;;;;;;6702310;88;20062;-79
2024/01/17 20:26:53;;;;;;;;;;;-0.10;99.90;;;;;;6700482;88;20171;-78
2024/01/17 20:36:59;;;;;;;;;;;-0.10;99.90;;;;;;6712033;88;20476;-78
2024/01/17 20:47:01;;;;;;;;;;;-0.20;99.90;;;;;;6688569;88;20067;-78
2024/01/17 20:57:01;;;;;;;;;;;-0.20;99.90;;;;;;6685147;88;20129;-78
2024/01/17 21:07:02;;;;;;;;;;;-0.20;99.90;;;;;;6687566;88;20086;-80
2024/01/17 21:17:02;;;;;;;;;;;-0.20;99.90;;;;;;6687845;88;20088;-77
2024/01/17 21:27:03;;;;;;;;;;;-0.20;99.90;;;;;;6686736;88;20096;-77
2024/01/17 21:37:03;;;;;;;;;;;-0.30;99.90;;;;;;6689252;88;20059;-79
2024/01/17 21:47:04;;;;;;;;;;;-0.40;99.90;;;;;;6689343;88;20048;-78
2024/01/17 21:57:05;;;;;;;;;;;-0.50;99.90;;;;;;6688861;88;20102;-78
2024/01/17 22:07:05;;;;;;;;;;;-0.50;99.90;;;;;;6689442;88;20058;-79
2024/01/17 22:17:06;;;;;;;;;;;-0.50;99.90;;;;;;6687606;88;20515;-79
2024/01/17 22:27:06;;;;;;;;;;;-0.60;99.90;;;;;;6688208;88;20490;-79
2024/01/17 22:37:07;;;;;;;;;;;-0.60;99.90;;;;;;6687258;88;20140;-80
2024/01/17 22:47:07;;;;;;;;;;;-0.60;99.90;;;;;;6687582;88;20114;-79
2024/01/17 22:57:08;;;;;;;;;;;-0.70;99.90;;;;;;6687254;88;20107;-79
2024/01/17 23:07:08;;;;;;;;;;;-0.70;99.90;;;;;;6686867;88;20615;-79
2024/01/17 23:17:09;;;;;;;;;;;-0.70;99.90;;;;;;6687001;88;20059;-80
2024/01/17 23:27:09;;;;;;;;;;;-0.70;99.90;;;;;;6685898;88;20507;-79
2024/01/17 23:37:10;;;;;;;;;;;-0.80;99.90;;;;;;6684819;88;20055;-78
2024/01/17 23:47:10;;;;;;;;;;;-0.70;99.90;;;;;;6685685;88;20181;-78
2024/01/17 23:57:11;;;;;;;;;;;-0.70;99.90;;;;;;6685982;88;20048;-78
